createdAt,value
2023-05-21T00:01:56.304Z,100912.63
2023-05-21T00:06:59.919Z,100905.33
2023-05-21T00:12:04.511Z,100896.20
2023-05-21T00:17:07.975Z,100896.90
2023-05-21T00:22:12.207Z,100903.46
2023-05-21T00:27:15.929Z,100914.91
2023-05-21T00:32:19.441Z,100916.55
2023-05-21T00:37:25.007Z,100917.02
2023-05-21T00:42:30.986Z,100917.29
2023-05-21T00:47:35.793Z,100913.42
2023-05-21T00:52:42.440Z,100915.05
2023-05-21T00:57:46.434Z,100913.77
2023-05-21T01:02:50.909Z,100909.89
2023-05-21T01:07:56.233Z,100903.93
2023-05-21T01:13:00.369Z,100903.57
2023-05-21T01:18:03.824Z,100898.55
2023-05-21T01:23:07.392Z,100891.36
2023-05-21T01:28:10.880Z,100889.39
2023-05-21T01:33:23.742Z,100888.98
2023-05-21T01:38:34.427Z,100887.38
2023-05-21T01:43:40.432Z,100886.85
2023-05-21T01:48:44.693Z,100890.14
2023-05-21T01:53:48.153Z,100894.48
2023-05-21T01:58:53.100Z,100895.46
2023-05-21T02:03:58.100Z,100894.89
2023-05-21T02:09:02.004Z,100886.91
2023-05-21T02:14:05.697Z,100879.74
2023-05-21T02:19:10.901Z,100881.59
2023-05-21T02:24:14.682Z,100883.23
2023-05-21T02:29:18.301Z,100883.27
2023-05-21T02:34:22.068Z,100884.20
2023-05-21T02:39:27.280Z,100888.87
2023-05-21T02:44:30.994Z,100888.17
2023-05-21T02:49:34.512Z,100888.30
2023-05-21T02:54:38.120Z,100881.41
2023-05-21T02:59:41.637Z,100878.86
2023-05-21T03:04:49.245Z,100879.55
2023-05-21T03:09:52.976Z,100883.67
2023-05-21T03:14:56.791Z,100886.86
2023-05-21T03:20:00.318Z,100888.98
2023-05-21T03:25:04.752Z,100890.67
2023-05-21T03:30:09.648Z,100886.49
2023-05-21T03:35:13.104Z,100882.13
2023-05-21T03:40:16.930Z,100879.74
2023-05-21T03:45:20.775Z,100872.05
2023-05-21T03:50:24.373Z,100869.46
2023-05-21T03:55:27.885Z,100865.31
2023-05-21T04:00:33.038Z,100867.96
2023-05-21T04:05:36.887Z,100871.66
2023-05-21T04:10:40.893Z,100873.08
2023-05-21T04:15:45.256Z,100875.63
2023-05-21T04:20:50.290Z,100878.67
2023-05-21T04:25:54.309Z,100879.06
2023-05-21T04:30:57.856Z,100879.70
2023-05-21T04:36:01.744Z,100880.02
2023-05-21T04:41:05.567Z,100875.95
2023-05-21T04:46:09.329Z,100873.98
2023-05-21T04:51:12.806Z,100871.19
2023-05-21T04:56:19.386Z,100867.08
2023-05-21T05:01:24.010Z,100868.84
2023-05-21T05:06:27.752Z,100871.36
2023-05-21T05:11:31.473Z,100872.30
2023-05-21T05:16:35.949Z,100874.69
2023-05-21T05:21:39.426Z,100874.75
2023-05-21T05:26:42.843Z,100876.98
2023-05-21T05:31:46.475Z,100874.56
2023-05-21T05:36:49.973Z,100873.86
2023-05-21T05:41:53.360Z,100876.92
2023-05-21T05:46:57.112Z,100875.56
2023-05-21T05:52:01.571Z,100872.83
2023-05-21T05:57:05.328Z,100868.44
2023-05-21T06:02:08.610Z,100867.08
2023-05-21T06:07:12.298Z,100869.80
2023-05-21T06:12:16.266Z,100867.60
2023-05-21T06:17:19.888Z,100869.17
2023-05-21T06:22:25.485Z,100864.25
2023-05-21T06:27:29.278Z,100865.83
2023-05-21T06:32:32.795Z,100868.83
2023-05-21T06:37:36.359Z,100862.31
2023-05-21T06:42:39.666Z,100867.58
2023-05-21T06:47:43.236Z,100867.51
2023-05-21T06:52:46.768Z,100867.10
2023-05-21T06:57:50.419Z,100863.98
2023-05-21T07:02:54.675Z,100866.88
2023-05-21T07:07:58.268Z,100865.13
2023-05-21T07:13:01.793Z,100862.42
2023-05-21T07:18:05.260Z,100862.86
2023-05-21T07:23:09.019Z,100860.05
2023-05-21T07:28:12.543Z,100868.74
2023-05-21T07:33:16.665Z,100870.61
2023-05-21T07:38:20.174Z,100868.51
2023-05-21T07:43:24.416Z,100868.50
2023-05-21T07:48:28.036Z,100866.17
2023-05-21T07:53:32.890Z,100868.47
2023-05-21T07:58:36.498Z,100869.13
2023-05-21T08:03:40.330Z,100862.39
2023-05-21T08:08:43.960Z,100856.91
2023-05-21T08:13:47.566Z,100854.88
2023-05-21T08:18:51.831Z,100852.36
2023-05-21T08:23:55.404Z,100850.32
2023-05-21T08:28:59.641Z,100850.68
2023-05-21T08:34:03.254Z,100843.66
2023-05-21T08:39:06.937Z,100838.35
2023-05-21T08:44:13.163Z,100840.73
2023-05-21T08:49:19.081Z,100839.45
2023-05-21T08:54:23.006Z,100840.75
2023-05-21T08:59:27.701Z,100839.98
2023-05-21T09:04:32.669Z,100837.30
2023-05-21T09:09:47.375Z,100841.50
2023-05-21T09:14:51.615Z,100841.38
2023-05-21T09:20:16.308Z,100838.14
2023-05-21T09:25:28.420Z,100838.16
2023-05-21T09:30:35.784Z,100839.41
2023-05-21T09:35:47.100Z,100830.67
2023-05-21T09:40:50.805Z,100834.98
2023-05-21T09:46:01.132Z,100832.86
2023-05-21T09:51:16.772Z,100828.64
2023-05-21T09:56:25.336Z,100826.73
2023-05-21T10:01:31.435Z,100826.61
2023-05-21T10:06:42.588Z,100815.31
2023-05-21T10:11:49.888Z,100810.59
2023-05-21T10:16:54.987Z,100817.97
2023-05-21T10:22:01.836Z,100811.60
2023-05-21T10:27:06.737Z,100806.84
2023-05-21T10:32:13.271Z,100807.86
2023-05-21T10:37:17.029Z,100800.52
2023-05-21T10:42:32.395Z,100801.26
2023-05-21T10:47:57.761Z,100790.86
2023-05-21T10:53:40.138Z,100788.39
2023-05-21T10:59:07.824Z,100783.60
2023-05-21T11:04:12.773Z,100777.61
2023-05-21T11:09:16.699Z,100775.02
2023-05-21T11:14:31.992Z,100773.94
2023-05-21T11:19:44.028Z,100776.09
2023-05-21T11:24:49.365Z,100759.51
2023-05-21T11:29:56.264Z,100766.10
2023-05-21T11:35:02.804Z,100756.63
2023-05-21T11:40:20.494Z,100757.88
2023-05-21T11:45:28.732Z,100758.52
2023-05-21T11:50:34.296Z,100752.17
2023-05-21T11:55:43.903Z,100746.80
2023-05-21T12:00:51.607Z,100748.35
2023-05-21T12:05:55.159Z,100747.98
2023-05-21T12:11:00.344Z,100745.10
2023-05-21T12:16:06.663Z,100741.99
2023-05-21T12:21:12.377Z,100736.20
2023-05-21T12:26:16.351Z,100734.11
2023-05-21T12:31:22.050Z,100736.96
2023-05-21T12:36:30.707Z,100735.37
2023-05-21T12:41:34.224Z,100730.36
2023-05-21T12:46:37.868Z,100727.84
2023-05-21T12:51:41.717Z,100724.17
2023-05-21T12:56:46.266Z,100724.27
2023-05-21T13:01:49.901Z,100719.70
2023-05-21T13:06:53.434Z,100717.73
2023-05-21T13:11:57.163Z,100712.89
2023-05-21T13:17:01.277Z,100711.26
2023-05-21T13:22:05.004Z,100707.48
2023-05-21T13:27:08.628Z,100704.10
2023-05-21T13:32:12.152Z,100699.88
2023-05-21T13:37:15.977Z,100695.05
2023-05-21T13:42:20.088Z,100691.71
2023-05-21T13:47:23.756Z,100687.91
2023-05-21T13:52:27.397Z,100700.34
2023-05-21T13:57:31.374Z,100699.45
2023-05-21T14:02:35.356Z,100698.64
2023-05-21T14:07:40.331Z,100701.66
2023-05-21T14:12:46.230Z,100694.44
2023-05-21T14:17:49.843Z,100690.20
2023-05-21T14:22:53.448Z,100693.48
2023-05-21T14:27:57.465Z,100699.00
2023-05-21T14:33:01.678Z,100701.42
2023-05-21T14:38:05.369Z,100704.83
2023-05-21T14:43:09.046Z,100701.37
2023-05-21T14:48:13.012Z,100698.27
2023-05-21T14:53:16.686Z,100698.84
2023-05-21T14:58:20.396Z,100694.87
2023-05-21T15:03:24.396Z,100687.72
2023-05-21T15:08:28.107Z,100675.24
2023-05-21T15:13:31.691Z,100673.23
2023-05-21T15:18:35.173Z,100677.00
2023-05-21T15:23:38.744Z,100671.62
2023-05-21T15:28:42.317Z,100672.60
2023-05-21T15:33:45.930Z,100665.55
2023-05-21T15:38:49.399Z,100656.60
2023-05-21T15:43:52.977Z,100654.50
2023-05-21T15:48:56.476Z,100652.16
2023-05-21T15:54:00.409Z,100639.59
2023-05-21T15:59:04.329Z,100632.77
2023-05-21T16:04:07.962Z,100626.29
2023-05-21T16:09:11.634Z,100622.86
2023-05-21T16:14:15.389Z,100616.80
2023-05-21T16:19:18.927Z,100614.95
2023-05-21T16:24:22.422Z,100608.34
2023-05-21T16:29:26.249Z,100608.00
2023-05-21T16:34:29.961Z,100608.50
2023-05-21T16:39:33.380Z,100605.28
2023-05-21T16:44:38.220Z,100600.10
2023-05-21T16:49:41.747Z,100595.38
2023-05-21T16:54:49.040Z,100598.84
2023-05-21T16:59:52.562Z,100601.45
2023-05-21T17:04:56.179Z,100598.64
2023-05-21T17:09:59.798Z,100596.07
2023-05-21T17:15:04.392Z,100601.20
2023-05-21T17:20:08.779Z,100593.63
2023-05-21T17:25:12.444Z,100593.21
2023-05-21T17:30:15.919Z,100597.34
2023-05-21T17:35:19.424Z,100596.60
2023-05-21T17:40:25.063Z,100597.84
2023-05-21T17:45:28.769Z,100596.90
2023-05-21T17:50:32.321Z,100588.45
2023-05-21T17:55:36.080Z,100586.41
2023-05-21T18:00:39.795Z,100587.24
2023-05-21T18:05:43.479Z,100587.40
2023-05-21T18:10:48.430Z,100585.05
2023-05-21T18:15:51.971Z,100594.30
2023-05-21T18:20:55.426Z,100596.95
2023-05-21T18:25:58.976Z,100599.95
2023-05-21T18:31:04.517Z,100599.83
2023-05-21T18:36:08.262Z,100602.44
2023-05-21T18:41:11.629Z,100606.84
2023-05-21T18:46:15.370Z,100612.00
2023-05-21T18:51:18.914Z,100612.86
2023-05-21T18:56:22.382Z,100614.33
2023-05-21T19:01:26.071Z,100613.61
2023-05-21T19:06:29.476Z,100612.70
2023-05-21T19:11:34.694Z,100612.03
2023-05-21T19:16:38.538Z,100615.94
2023-05-21T19:21:42.222Z,100616.64
2023-05-21T19:26:45.780Z,100618.55
2023-05-21T19:31:49.190Z,100616.37
2023-05-21T19:36:54.003Z,100617.35
2023-05-21T19:41:58.053Z,100609.82
2023-05-21T19:47:02.221Z,100614.42
2023-05-21T19:52:06.463Z,100605.87
2023-05-21T19:57:12.275Z,100603.27
2023-05-21T20:02:17.459Z,100597.53
2023-05-21T20:07:20.869Z,100595.23
2023-05-21T20:12:24.380Z,100590.34
2023-05-21T20:17:28.996Z,100588.79
2023-05-21T20:22:33.349Z,100593.93
2023-05-21T20:27:39.229Z,100591.78
2023-05-21T20:32:42.904Z,100591.25
2023-05-21T20:37:47.377Z,100593.34
2023-05-21T20:42:53.759Z,100603.11
2023-05-21T20:47:58.034Z,100607.52
2023-05-21T20:53:02.275Z,100612.42
2023-05-21T20:58:05.949Z,100614.34
2023-05-21T21:03:11.740Z,100614.23
2023-05-21T21:08:16.559Z,100613.80
2023-05-21T21:13:20.077Z,100613.03
2023-05-21T21:18:23.593Z,100610.94
2023-05-21T21:23:30.382Z,100614.73
2023-05-21T21:28:33.907Z,100610.75
2023-05-21T21:33:37.541Z,100611.89
2023-05-21T21:38:41.135Z,100605.11
2023-05-21T21:43:44.758Z,100608.25
2023-05-21T21:48:48.189Z,100613.88
2023-05-21T21:53:51.784Z,100610.41
2023-05-21T21:58:55.404Z,100612.28
2023-05-21T22:03:59.489Z,100616.95
2023-05-21T22:09:02.975Z,100614.40
2023-05-21T22:14:07.080Z,100615.20
2023-05-21T22:19:13.117Z,100613.52
2023-05-21T22:24:30.796Z,100606.83
2023-05-21T22:29:34.936Z,100604.89
2023-05-21T22:34:38.451Z,100603.59
2023-05-21T22:39:42.069Z,100606.66
2023-05-21T22:44:45.794Z,100602.70
2023-05-21T22:49:49.510Z,100599.79
2023-05-21T22:54:53.956Z,100600.42
2023-05-21T22:59:57.564Z,100592.31
2023-05-21T23:05:01.514Z,100589.98
2023-05-21T23:10:05.720Z,100591.38
2023-05-21T23:15:10.367Z,100592.88
2023-05-21T23:20:13.888Z,100583.39
2023-05-21T23:25:18.164Z,100577.70
2023-05-21T23:30:21.537Z,100576.80
2023-05-21T23:35:25.353Z,100572.23
2023-05-21T23:40:28.756Z,100579.98
2023-05-21T23:45:32.388Z,100580.81
2023-05-21T23:50:36.037Z,100577.17
2023-05-21T23:55:39.506Z,100575.92
